Time;durP1;ratioP1;P1;durP2;ratioP2;P2;SDS_P1;SDS_P2;PMS_P1;PMS_P2;Temp;Humidity;BMP_temperature;BMP_pressure;BME280_temperature;BME280_humidity;BME280_pressure;Samples;Min_cycle;Max_cycle;Signal;HPM_P1;HPM_P2
2023/07/02 00:04:58;;;;;;;4.45;2.00;;;;;;;19.03;76.97;99395.81;10401776;28;20056;-66
2023/07/02 00:09:59;;;;;;;3.25;1.60;;;;;;;18.98;77.27;99407.19;10397235;28;20049;-66
2023/07/02 00:15:01;;;;;;;2.13;1.75;;;;;;;18.99;76.77;99403.47;10397039;28;20710;-66
2023/07/02 00:20:02;;;;;;;3.50;1.80;;;;;;;18.89;76.99;99403.00;10396884;28;20056;-66
2023/07/02 00:25:04;;;;;;;2.47;1.25;;;;;;;18.88;77.17;99390.53;10399783;28;20056;-65
2023/07/02 00:30:06;;;;;;;1.95;1.45;;;;;;;18.91;77.98;99395.53;10396910;28;20083;-66
2023/07/02 00:35:08;;;;;;;7.35;1.60;;;;;;;18.88;76.78;99390.53;10395598;28;20582;-66
2023/07/02 00:40:10;;;;;;;3.17;1.48;;;;;;;18.95;77.08;99407.59;10391659;28;20174;-66
2023/07/02 00:45:11;;;;;;;5.40;1.40;;;;;;;18.98;76.82;99412.59;10395620;28;20543;-66
2023/07/02 00:50:13;;;;;;;2.05;1.40;;;;;;;18.93;76.46;99404.28;10396455;28;20506;-64
2023/07/02 00:55:15;;;;;;;2.90;1.83;;;;;;;18.93;74.86;99425.84;10396951;28;20610;-66
2023/07/02 01:00:17;;;;;;;2.28;1.30;;;;;;;18.90;75.77;99415.47;10396012;28;20236;-66
2023/07/02 01:05:21;;;;;;;3.00;1.67;;;;;;;18.79;75.06;99408.69;10393952;28;20057;-66
2023/07/02 01:10:23;;;;;;;5.25;1.90;;;;;;;18.73;74.04;99415.75;10394279;28;20056;-66
2023/07/02 01:15:24;;;;;;;2.63;1.35;;;;;;;18.61;73.77;99411.06;10393177;28;20060;-66
2023/07/02 01:20:26;;;;;;;3.10;1.52;;;;;;;18.69;74.57;99421.69;10393175;28;20052;-65
2023/07/02 01:25:29;;;;;;;5.37;1.40;;;;;;;18.61;72.95;99411.91;10396912;28;20041;-66
2023/07/02 01:30:31;;;;;;;3.60;1.58;;;;;;;18.58;72.69;99406.09;10391971;28;20045;-66
2023/07/02 01:35:32;;;;;;;3.72;1.75;;;;;;;18.55;73.87;99408.16;10394537;28;20705;-67
2023/07/02 01:40:33;;;;;;;2.35;1.25;;;;;;;18.54;72.77;99419.13;10384680;28;20132;-63
2023/07/02 01:45:37;;;;;;;6.32;1.55;;;;;;;18.49;71.73;99419.69;10388329;28;20056;-66
2023/07/02 01:50:39;;;;;;;;;;;;;;;18.39;71.18;99424.59;10388500;28;20053;-66
2023/07/02 01:55:40;;;;;;;3.22;1.10;;;;;;;18.27;71.78;99416.22;10393756;28;20125;-66
2023/07/02 02:00:41;;;;;;;3.67;1.38;;;;;;;18.24;72.88;99424.69;10387850;28;20077;-65
2023/07/02 02:05:43;;;;;;;3.85;1.67;;;;;;;18.25;72.14;99415.56;10392305;28;20046;-66
2023/07/02 02:10:44;;;;;;;2.70;1.85;;;;;;;18.19;72.60;99433.34;10392645;28;20148;-66
2023/07/02 02:15:46;;;;;;;3.42;1.35;;;;;;;18.13;72.89;99436.78;10391378;28;20073;-67
2023/07/02 02:20:47;;;;;;;2.58;1.40;;;;;;;17.92;73.44;99428.72;10395907;28;20504;-65
2023/07/02 02:25:49;;;;;;;2.60;1.25;;;;;;;17.91;73.70;99435.97;10398412;28;20057;-68
2023/07/02 02:30:51;;;;;;;4.07;1.50;;;;;;;18.01;73.24;99443.72;10394839;28;20141;-66
2023/07/02 02:35:53;;;;;;;1.95;1.40;;;;;;;17.93;73.40;99441.97;10398019;28;20658;-67
2023/07/02 02:40:54;;;;;;;2.50;1.77;;;;;;;17.93;72.69;99447.38;10400153;28;20049;-67
2023/07/02 02:45:56;;;;;;;3.72;1.75;;;;;;;17.84;71.96;99448.47;10399129;28;20589;-69
2023/07/02 02:50:59;;;;;;;4.35;1.50;;;;;;;17.73;72.51;99436.38;10404784;28;20080;-66
2023/07/02 02:56:00;;;;;;;3.03;1.98;;;;;;;17.76;71.18;99441.38;10397550;28;20053;-66
2023/07/02 03:01:01;;;;;;;3.03;1.95;;;;;;;17.82;70.83;99464.00;10401268;28;20056;-66
2023/07/02 03:06:03;;;;;;;5.22;2.20;;;;;;;17.80;69.93;99472.22;10395391;28;20549;-67
2023/07/02 03:11:04;;;;;;;3.47;2.08;;;;;;;17.77;70.63;99463.72;10394167;28;20694;-65
2023/07/02 03:16:06;;;;;;;4.85;2.40;;;;;;;17.71;69.74;99472.56;10396294;28;20110;-66
2023/07/02 03:21:08;;;;;;;6.30;2.25;;;;;;;17.75;69.41;99480.06;10398985;28;20048;-67
2023/07/02 03:26:10;;;;;;;5.22;2.40;;;;;;;17.76;69.63;99468.28;10395875;28;20516;-66
2023/07/02 03:31:11;;;;;;;5.35;2.40;;;;;;;17.67;68.94;99470.25;10392360;28;20655;-65
2023/07/02 03:36:13;;;;;;;8.13;3.20;;;;;;;17.77;68.65;99486.06;10393528;28;20137;-66
2023/07/02 03:41:14;;;;;;;5.80;3.40;;;;;;;17.71;68.41;99480.63;10397971;28;20519;-67
2023/07/02 03:46:15;;;;;;;5.63;3.53;;;;;;;17.72;68.77;99476.94;10398741;28;20055;-66
2023/07/02 03:51:17;;;;;;;4.53;3.17;;;;;;;17.75;68.77;99484.63;10398040;28;20054;-66
2023/07/02 03:56:18;;;;;;;6.80;4.18;;;;;;;17.79;67.59;99496.66;10401999;28;20052;-66
2023/07/02 04:01:20;;;;;;;5.30;3.65;;;;;;;17.77;67.44;99504.91;10399559;28;20118;-66
2023/07/02 04:06:22;;;;;;;6.65;3.75;;;;;;;17.77;67.26;99509.47;10395717;28;20438;-67
2023/07/02 04:11:24;;;;;;;5.82;3.58;;;;;;;17.62;66.77;99496.88;10394276;28;20628;-66
2023/07/02 04:16:25;;;;;;;4.88;3.33;;;;;;;17.64;67.23;99519.06;10395786;28;20427;-69
2023/07/02 04:21:27;;;;;;;5.55;3.22;;;;;;;17.56;66.94;99513.75;10392679;28;20459;-67
2023/07/02 04:26:29;;;;;;;4.93;3.10;;;;;;;17.53;67.12;99516.84;10392077;28;20045;-66
2023/07/02 04:31:51;;;;;;;6.55;3.28;;;;;;;17.48;66.90;99530.03;10395257;28;20140;-66
2023/07/02 04:36:53;;;;;;;6.45;4.03;;;;;;;17.44;66.54;99534.09;10393429;28;20057;-66
2023/07/02 04:41:55;;;;;;;7.13;4.90;;;;;;;17.38;66.10;99534.84;10392103;28;20293;-67
2023/07/02 04:47:01;;;;;;;5.65;4.28;;;;;;;17.46;65.76;99550.91;10395323;28;20080;-67
2023/07/02 04:52:02;;;;;;;7.75;4.57;;;;;;;17.48;66.08;99546.16;10391571;28;20041;-66
2023/07/02 04:57:04;;;;;;;6.28;4.20;;;;;;;17.55;66.01;99533.66;10397917;28;20053;-68
2023/07/02 05:02:05;;;;;;;7.07;5.13;;;;;;;17.51;65.32;99548.47;10391813;28;20049;-67
2023/07/02 05:07:07;;;;;;;7.88;5.38;;;;;;;17.54;64.91;99558.03;10397658;28;20138;-67
2023/07/02 05:12:09;;;;;;;7.05;4.90;;;;;;;17.49;65.13;99542.47;10391566;28;20139;-66
2023/07/02 05:17:11;;;;;;;8.18;5.75;;;;;;;17.65;64.78;99560.25;10393263;28;20610;-66
2023/07/02 05:22:12;;;;;;;8.85;5.72;;;;;;;17.54;64.20;99552.66;10389213;28;20042;-66
2023/07/02 05:27:14;;;;;;;9.55;4.88;;;;;;;17.49;64.50;99558.59;10391455;28;20057;-66
2023/07/02 05:32:15;;;;;;;8.52;5.35;;;;;;;17.62;64.62;99569.53;10391776;28;20103;-65
2023/07/02 05:37:16;;;;;;;7.90;5.40;;;;;;;17.65;63.67;99571.88;10395255;28;20052;-65
2023/07/02 05:42:18;;;;;;;7.60;5.55;;;;;;;17.69;63.30;99579.56;10392631;28;20190;-65
2023/07/02 05:47:19;;;;;;;7.18;5.22;;;;;;;17.63;63.98;99557.75;10393215;28;20163;-66
2023/07/02 05:52:22;;;;;;;8.25;5.20;;;;;;;17.69;64.28;99579.56;10388498;28;20100;-66
2023/07/02 05:57:24;;;;;;;8.20;4.53;;;;;;;17.70;63.59;99583.91;10389002;28;20052;-65
2023/07/02 06:02:25;;;;;;;10.45;5.82;;;;;;;17.73;63.85;99586.22;10379586;28;20130;-66
2023/07/02 06:07:27;;;;;;;9.70;6.57;;;;;;;17.66;63.24;99586.16;10392817;28;20662;-65
2023/07/02 06:12:28;;;;;;;9.73;6.38;;;;;;;17.65;63.73;99598.78;10389236;28;20095;-68
2023/07/02 06:17:30;;;;;;;11.32;7.18;;;;;;;17.71;64.08;99599.06;10391509;28;21145;-71
2023/07/02 06:22:34;;;;;;;8.50;6.22;;;;;;;17.75;62.79;99600.34;10394134;28;20061;-70
2023/07/02 06:27:36;;;;;;;8.73;6.28;;;;;;;17.93;62.75;99611.59;10389487;28;20132;-70
2023/07/02 06:32:38;;;;;;;9.85;6.85;;;;;;;18.07;62.92;99620.69;10392718;28;20971;-69
2023/07/02 06:37:39;;;;;;;7.90;5.95;;;;;;;18.02;61.34;99590.78;10391724;28;20045;-69
2023/07/02 06:42:41;;;;;;;8.43;6.00;;;;;;;18.20;61.42;99615.44;10397466;28;20057;-67
2023/07/02 06:47:42;;;;;;;8.70;6.40;;;;;;;18.27;61.57;99620.94;10392212;28;20183;-69
2023/07/02 06:52:44;;;;;;;12.68;6.65;;;;;;;18.16;61.49;99613.31;10390384;28;20056;-70
2023/07/02 06:57:45;;;;;;;10.32;7.20;;;;;;;18.21;61.87;99610.91;10392114;28;20059;-70
2023/07/02 07:02:47;;;;;;;9.32;7.30;;;;;;;18.12;62.06;99622.78;10395975;28;20045;-68
2023/07/02 07:07:48;;;;;;;12.55;7.47;;;;;;;18.14;61.46;99610.81;10393840;28;20130;-68
2023/07/02 07:12:50;;;;;;;9.23;6.63;;;;;;;18.14;61.92;99635.06;10391306;28;20064;-70
2023/07/02 07:17:51;;;;;;;10.68;7.53;;;;;;;18.16;62.07;99629.50;10392839;28;21341;-70
2023/07/02 07:22:53;;;;;;;11.00;7.00;;;;;;;18.22;61.96;99633.28;10393222;28;20053;-70
2023/07/02 07:27:54;;;;;;;11.70;7.40;;;;;;;18.57;62.33;99634.34;10392490;28;20142;-70
2023/07/02 07:32:55;;;;;;;11.50;7.75;;;;;;;18.88;61.02;99641.31;10394414;28;20076;-69
2023/07/02 07:37:57;;;;;;;12.13;8.63;;;;;;;19.03;59.96;99617.78;10398329;28;20057;-68
2023/07/02 07:42:58;;;;;;;12.82;9.15;;;;;;;19.30;60.43;99636.88;10405272;28;20130;-68
2023/07/02 07:48:00;;;;;;;11.82;8.35;;;;;;;19.50;59.33;99637.06;10390118;28;20049;-67
2023/07/02 07:53:02;;;;;;;12.65;8.50;;;;;;;19.66;58.88;99652.09;10391816;28;20057;-66
2023/07/02 07:58:04;;;;;;;11.60;9.23;;;;;;;19.64;58.96;99640.69;10383912;28;20053;-70
2023/07/02 08:03:06;;;;;;;11.10;8.80;;;;;;;19.57;58.98;99639.78;10394520;28;20099;-68
2023/07/02 08:08:08;;;;;;;12.02;9.02;;;;;;;19.64;59.01;99648.78;10376130;28;20152;-68
2023/07/02 08:13:10;;;;;;;11.80;9.38;;;;;;;19.55;58.76;99644.56;10393410;28;20045;-72
2023/07/02 08:18:13;;;;;;;13.55;9.35;;;;;;;19.49;59.14;99651.56;10399723;28;20543;-71
2023/07/02 08:23:14;;;;;;;12.40;10.02;;;;;;;19.49;58.37;99637.25;10401980;28;20053;-70
2023/07/02 08:28:16;;;;;;;17.77;9.75;;;;;;;19.71;58.54;99644.25;10402233;28;20138;-67
2023/07/02 08:33:17;;;;;;;16.27;9.40;;;;;;;20.23;57.36;99660.97;10410012;28;20056;-67
2023/07/02 08:38:21;;;;;;;11.50;9.52;;;;;;;20.29;56.17;99659.31;10396398;28;20316;-67
2023/07/02 08:43:25;;;;;;;9.30;8.30;;;;;;;20.43;54.94;99663.75;10400197;28;20064;-65
2023/07/02 08:48:29;;;;;;;13.13;8.73;;;;;;;20.64;54.79;99643.00;10396354;28;20715;-67
2023/07/02 08:53:33;;;;;;;12.98;9.30;;;;;;;20.78;55.13;99650.16;10411399;28;20406;-64
2023/07/02 08:58:35;;;;;;;11.50;8.43;;;;;;;21.00;53.53;99652.69;10398191;28;20060;-66
2023/07/02 09:03:37;;;;;;;15.25;8.43;;;;;;;21.01;53.85;99659.75;10395127;28;20084;-65
2023/07/02 09:08:39;;;;;;;10.75;7.85;;;;;;;20.94;53.73;99645.38;10390799;28;20041;-69
2023/07/02 09:13:46;;;;;;;14.75;9.35;;;;;;;21.25;52.23;99661.03;10395954;28;20063;-66
2023/07/02 09:19:04;;;;;;;11.43;7.90;;;;;;;21.53;53.15;99658.13;10384423;28;20450;-64
2023/07/02 09:24:17;;;;;;;10.43;7.68;;;;;;;21.71;50.31;99653.94;10394279;28;20045;-64
2023/07/02 09:29:30;;;;;;;11.18;7.18;;;;;;;21.60;50.21;99646.47;10394851;28;20118;-66
2023/07/02 09:34:34;;;;;;;11.43;7.78;;;;;;;21.73;51.04;99664.56;10398725;28;20051;-65
2023/07/02 09:39:36;;;;;;;;;;;;;;;21.75;49.74;99660.59;10399447;28;20077;-65
2023/07/02 09:44:38;;;;;;;11.88;8.23;;;;;;;21.60;49.11;99657.28;10397863;28;19932;-64
2023/07/02 09:49:53;;;;;;;10.82;8.48;;;;;;;21.53;49.62;99660.03;10398762;28;20060;-65
2023/07/02 09:54:55;;;;;;;9.82;7.28;;;;;;;21.61;49.95;99658.97;10399901;28;21016;-65
2023/07/02 10:00:00;;;;;;;12.25;8.85;;;;;;;21.76;49.33;99656.84;10396608;28;20075;-65
2023/07/02 10:05:01;;;;;;;10.80;6.97;;;;;;;21.81;49.95;99656.22;10393486;28;20234;-65
2023/07/02 10:10:03;;;;;;;13.10;8.18;;;;;;;21.84;49.75;99631.41;10401433;28;20053;-65
2023/07/02 10:15:05;;;;;;;9.95;6.93;;;;;;;21.85;46.58;99649.34;10400371;28;20057;-64
2023/07/02 10:20:07;;;;;;;8.32;6.45;;;;;;;21.70;47.73;99646.88;10391089;28;20061;-64
2023/07/02 10:25:09;;;;;;;9.00;7.60;;;;;;;21.50;47.22;99653.13;10400791;28;20053;-65
2023/07/02 10:30:11;;;;;;;10.75;8.18;;;;;;;21.63;46.86;99648.75;10397857;28;20675;-64
2023/07/02 10:35:14;;;;;;;10.73;7.57;;;;;;;21.97;46.05;99646.81;10397599;28;20057;-65
2023/07/02 10:40:16;;;;;;;11.07;7.32;;;;;;;22.37;44.97;99658.34;10393420;28;20054;-63
2023/07/02 10:45:19;;;;;;;8.95;7.32;;;;;;;22.45;44.57;99654.56;10391461;28;20045;-64
2023/07/02 10:50:21;;;;;;;10.07;6.70;;;;;;;22.51;44.60;99637.44;10393879;28;20055;-66
2023/07/02 10:55:24;;;;;;;8.90;7.47;;;;;;;22.62;44.23;99626.94;10397286;28;20045;-66
2023/07/02 11:00:25;;;;;;;10.98;7.05;;;;;;;22.48;44.52;99643.28;10396523;28;20041;-62
2023/07/02 11:05:27;;;;;;;9.65;8.25;;;;;;;22.51;45.29;99658.31;10398630;28;20145;-64
2023/07/02 11:10:30;;;;;;;13.10;7.97;;;;;;;22.72;44.97;99654.44;10402669;28;20138;-65
2023/07/02 11:15:36;;;;;;;9.48;7.85;;;;;;;22.73;42.63;99631.69;10397465;28;20049;-63
2023/07/02 11:20:39;;;;;;;9.45;7.55;;;;;;;22.93;43.53;99634.25;10400073;28;20129;-65
2023/07/02 11:25:40;;;;;;;8.77;6.72;;;;;;;23.19;42.97;99635.94;10397715;28;20353;-62
2023/07/02 11:30:46;;;;;;;9.65;7.05;;;;;;;23.67;41.84;99649.97;10398654;28;20052;-64
2023/07/02 11:35:47;;;;;;;9.63;7.20;;;;;;;23.86;41.59;99618.22;10395070;28;20053;-66
2023/07/02 11:40:49;;;;;;;9.85;8.18;;;;;;;24.04;41.00;99633.72;10396324;28;20285;-66
2023/07/02 11:45:51;;;;;;;10.05;6.95;;;;;;;23.97;39.08;99628.34;10395447;28;20449;-64
2023/07/02 11:50:52;;;;;;;11.32;7.97;;;;;;;23.72;39.51;99622.94;10394876;28;20059;-65
2023/07/02 11:55:54;;;;;;;10.77;8.45;;;;;;;23.47;39.63;99635.50;10395814;28;20081;-64
2023/07/02 12:00:55;;;;;;;11.05;8.90;;;;;;;23.64;39.32;99638.50;10406105;28;20057;-64
2023/07/02 12:05:57;;;;;;;10.75;9.38;;;;;;;23.91;37.99;99634.69;10409806;28;20060;-64
2023/07/02 12:10:59;;;;;;;10.80;8.63;;;;;;;24.08;38.43;99621.31;10395088;28;20053;-65
2023/07/02 12:16:01;;;;;;;10.82;8.38;;;;;;;24.28;35.94;99619.16;10421776;28;20045;-64
2023/07/02 12:21:03;;;;;;;10.43;8.70;;;;;;;24.46;35.85;99633.81;10391992;28;20111;-62
2023/07/02 12:26:04;;;;;;;13.07;8.82;;;;;;;24.49;35.47;99636.88;10391653;28;20057;-63
2023/07/02 12:31:06;;;;;;;11.68;8.25;;;;;;;24.59;34.29;99622.78;10389338;28;20045;-64
2023/07/02 12:36:07;;;;;;;9.30;7.65;;;;;;;24.85;34.37;99626.16;10387083;28;20074;-66
2023/07/02 12:41:09;;;;;;;9.13;7.00;;;;;;;25.09;34.19;99631.66;10391775;28;20245;-67
2023/07/02 12:46:10;;;;;;;9.40;7.88;;;;;;;24.82;35.12;99645.69;10389166;28;20044;-64
2023/07/02 12:51:12;;;;;;;11.02;7.93;;;;;;;24.73;33.94;99630.75;10390758;28;20083;-64
2023/07/02 12:56:13;;;;;;;9.35;7.70;;;;;;;24.60;34.88;99638.00;10391332;28;20918;-67
2023/07/02 13:01:14;;;;;;;9.27;7.82;;;;;;;24.66;34.97;99626.22;10390012;28;20478;-62
2023/07/02 13:06:16;;;;;;;12.63;8.77;;;;;;;24.69;34.99;99625.75;10383484;28;20270;-67
2023/07/02 13:11:17;;;;;;;10.25;8.05;;;;;;;24.74;34.64;99637.81;10388914;28;20060;-64
2023/07/02 13:16:19;;;;;;;11.27;8.50;;;;;;;24.82;33.99;99640.22;10390026;28;20061;-63
2023/07/02 13:21:20;;;;;;;9.60;7.97;;;;;;;24.75;34.76;99644.94;10388382;28;20060;-64
2023/07/02 13:26:22;;;;;;;11.73;8.35;;;;;;;24.85;33.57;99653.38;10386505;28;20052;-66
2023/07/02 13:31:26;;;;;;;15.10;8.13;;;;;;;24.55;34.90;99670.50;10388423;28;20749;-64
2023/07/02 13:36:28;;;;;;;12.20;8.20;;;;;;;24.41;35.06;99666.28;10387095;28;20523;-63
2023/07/02 13:41:30;;;;;;;10.55;8.70;;;;;;;24.35;35.05;99685.19;10386138;28;20123;-63
2023/07/02 13:46:32;;;;;;;12.47;9.60;;;;;;;24.35;35.65;99679.75;10386663;28;20048;-65
2023/07/02 13:51:36;;;;;;;10.30;8.52;;;;;;;24.40;34.68;99670.09;10391448;28;20053;-64
2023/07/02 13:56:37;;;;;;;12.00;9.05;;;;;;;24.33;35.53;99679.13;10391649;28;20798;-66
2023/07/02 14:01:38;;;;;;;11.70;8.70;;;;;;;24.31;35.42;99673.09;10388609;28;20144;-65
2023/07/02 14:06:40;;;;;;;11.30;8.15;;;;;;;24.45;35.81;99679.19;10385717;28;20068;-63
2023/07/02 14:11:43;;;;;;;11.02;9.15;;;;;;;24.16;34.22;99656.34;10385969;28;20056;-65
2023/07/02 14:16:45;;;;;;;10.70;8.77;;;;;;;24.23;35.81;99672.56;10388859;28;20056;-65
2023/07/02 14:21:46;;;;;;;10.45;8.85;;;;;;;24.30;36.54;99671.44;10391641;28;20040;-64
2023/07/02 14:26:48;;;;;;;10.30;8.98;;;;;;;24.53;35.88;99659.03;10387199;28;20056;-64
2023/07/02 14:31:49;;;;;;;12.38;9.38;;;;;;;24.48;36.61;99658.88;10392800;28;20064;-65
2023/07/02 14:36:51;;;;;;;10.65;8.85;;;;;;;24.43;35.79;99664.19;10395825;28;20045;-64
2023/07/02 14:41:54;;;;;;;12.00;9.93;;;;;;;24.28;36.66;99656.41;10405773;28;20049;-65
2023/07/02 14:46:56;;;;;;;13.35;10.13;;;;;;;24.35;36.40;99651.75;10392305;28;20103;-63
2023/07/02 14:51:57;;;;;;;12.98;9.85;;;;;;;24.28;36.08;99649.09;10391579;28;20057;-64
2023/07/02 14:56:59;;;;;;;10.88;9.68;;;;;;;24.47;34.92;99649.03;10392968;28;20064;-64
2023/07/02 15:02:00;;;;;;;11.68;9.30;;;;;;;24.42;35.50;99649.72;10392486;28;20601;-64
2023/07/02 15:07:02;;;;;;;12.75;9.80;;;;;;;24.51;35.26;99650.25;10393234;28;20327;-64
2023/07/02 15:12:04;;;;;;;13.07;9.90;;;;;;;24.51;35.56;99637.47;10399831;28;20076;-63
2023/07/02 15:17:05;;;;;;;11.75;10.52;;;;;;;24.50;34.83;99660.31;10399307;28;20063;-64
2023/07/02 15:22:07;;;;;;;14.55;9.75;;;;;;;24.34;35.06;99645.44;10392245;28;20063;-64
2023/07/02 15:27:08;;;;;;;12.63;9.55;;;;;;;24.39;34.72;99646.66;10390784;28;20130;-64
2023/07/02 15:32:10;;;;;;;13.77;10.10;;;;;;;24.37;34.35;99648.78;10388833;28;20053;-66
2023/07/02 15:37:12;;;;;;;14.73;9.82;;;;;;;24.13;35.04;99611.41;10392287;28;20274;-63
2023/07/02 15:42:13;;;;;;;11.45;9.18;;;;;;;24.27;34.21;99633.00;10389848;28;20060;-64
2023/07/02 15:47:15;;;;;;;12.13;9.02;;;;;;;24.27;34.38;99630.28;10387575;28;20048;-64
2023/07/02 15:52:17;;;;;;;13.83;9.77;;;;;;;24.39;34.95;99627.63;10390731;28;20048;-63
2023/07/02 15:57:18;;;;;;;12.23;9.18;;;;;;;24.32;34.04;99625.81;10385688;28;20110;-64
2023/07/02 16:02:21;;;;;;;14.68;9.35;;;;;;;24.26;34.85;99626.75;10391124;28;20427;-66
2023/07/02 16:07:25;;;;;;;13.38;9.82;;;;;;;24.25;33.92;99619.63;10382917;28;20822;-65
2023/07/02 16:12:26;;;;;;;12.05;9.43;;;;;;;24.28;33.45;99623.78;10387449;28;20052;-64
2023/07/02 16:17:27;;;;;;;12.02;9.27;;;;;;;24.30;34.62;99633.34;10390762;28;20159;-65
2023/07/02 16:22:30;;;;;;;11.87;9.57;;;;;;;24.29;34.13;99626.28;10396880;28;20045;-64
2023/07/02 16:27:33;;;;;;;13.35;10.75;;;;;;;24.24;34.10;99622.59;10391210;28;20041;-68
2023/07/02 16:32:35;;;;;;;13.70;10.02;;;;;;;24.18;34.42;99629.75;10385849;28;20435;-64
2023/07/02 16:37:36;;;;;;;11.73;9.00;;;;;;;24.13;34.55;99611.41;10389019;28;20065;-63
2023/07/02 16:42:38;;;;;;;11.77;9.23;;;;;;;24.13;34.07;99611.41;10375120;28;20053;-64
2023/07/02 16:47:39;;;;;;;14.35;9.27;;;;;;;24.10;34.78;99617.31;10358923;28;20134;-64
2023/07/02 16:52:41;;;;;;;12.10;10.05;;;;;;;23.99;33.98;99626.25;10384103;28;20499;-65
2023/07/02 16:57:42;;;;;;;12.02;9.85;;;;;;;23.81;34.94;99627.03;10378018;28;20049;-66
2023/07/02 17:02:44;;;;;;;12.43;9.43;;;;;;;23.64;35.04;99600.47;10382605;28;20152;-64
2023/07/02 17:07:45;;;;;;;11.82;10.02;;;;;;;23.75;35.59;99622.47;10385035;28;20051;-64
2023/07/02 17:12:49;;;;;;;13.18;10.00;;;;;;;23.69;35.46;99631.53;10386727;28;20128;-64
2023/07/02 17:17:52;;;;;;;11.15;8.65;;;;;;;23.45;35.33;99582.47;10393129;28;20805;-62
2023/07/02 17:22:53;;;;;;;11.73;9.13;;;;;;;23.52;35.47;99604.94;10394190;28;20059;-64
2023/07/02 17:27:54;;;;;;;13.27;10.15;;;;;;;23.52;37.56;99615.00;10390346;28;20139;-63
2023/07/02 17:32:56;;;;;;;14.32;9.70;;;;;;;23.51;36.99;99614.19;10394234;28;20056;-62
2023/07/02 17:37:57;;;;;;;11.57;9.43;;;;;;;23.53;36.51;99622.09;10387456;28;20053;-63
2023/07/02 17:42:59;;;;;;;14.25;9.82;;;;;;;23.42;35.89;99615.50;10394591;28;20053;-63
2023/07/02 17:48:01;;;;;;;12.98;10.77;;;;;;;23.35;35.63;99617.47;10388794;28;20053;-63
2023/07/02 17:53:02;;;;;;;13.27;10.63;;;;;;;23.24;36.33;99603.56;10403963;28;20053;-62
2023/07/02 17:58:03;;;;;;;10.63;9.05;;;;;;;23.37;37.18;99623.50;10389976;28;20672;-62
2023/07/02 18:03:05;;;;;;;16.60;11.75;;;;;;;23.39;36.42;99619.50;10389115;28;20638;-63
2023/07/02 18:08:06;;;;;;;13.07;10.80;;;;;;;23.30;36.76;99608.09;10386955;28;20126;-64
2023/07/02 18:13:08;;;;;;;16.45;11.48;;;;;;;23.18;36.51;99617.16;10387029;28;20415;-63
2023/07/02 18:18:10;;;;;;;14.18;10.48;;;;;;;23.20;36.84;99617.81;10393407;28;20050;-63
2023/07/02 18:23:11;;;;;;;15.73;9.68;;;;;;;22.97;36.86;99602.06;10389545;28;20056;-63
2023/07/02 18:28:14;;;;;;;10.88;9.38;;;;;;;23.13;36.86;99625.97;10391198;28;20195;-63
2023/07/02 18:33:16;;;;;;;15.63;10.37;;;;;;;22.99;36.80;99606.22;10396075;28;20057;-64
2023/07/02 18:38:18;;;;;;;12.20;9.43;;;;;;;22.78;36.66;99585.72;10392959;28;20060;-61
2023/07/02 18:43:19;;;;;;;12.95;8.93;;;;;;;22.91;37.51;99620.91;10387747;28;20504;-63
2023/07/02 18:48:21;;;;;;;12.52;9.30;;;;;;;22.89;37.55;99611.31;10392732;28;20729;-63
2023/07/02 18:53:24;;;;;;;13.25;9.13;;;;;;;22.92;37.57;99638.88;10391117;28;20164;-63
2023/07/02 18:58:26;;;;;;;13.90;9.65;;;;;;;22.80;36.99;99624.31;10397074;28;20060;-62
2023/07/02 19:03:28;;;;;;;16.05;9.93;;;;;;;22.55;36.83;99600.69;10389481;28;20041;-62
2023/07/02 19:08:30;;;;;;;13.38;9.25;;;;;;;22.74;37.62;99625.19;10389490;28;20057;-62
2023/07/02 19:13:32;;;;;;;12.50;8.82;;;;;;;22.67;37.34;99621.69;10395360;28;20045;-62
2023/07/02 19:18:33;;;;;;;13.30;9.75;;;;;;;22.61;37.54;99628.84;10398404;28;20056;-62
2023/07/02 19:23:34;;;;;;;15.10;9.65;;;;;;;22.53;37.78;99620.94;10405493;28;20084;-63
2023/07/02 19:28:36;;;;;;;10.30;9.20;;;;;;;22.56;37.93;99634.91;10404484;28;20049;-63
2023/07/02 19:33:37;;;;;;;14.07;10.18;;;;;;;22.46;37.79;99629.13;10400917;28;20073;-63
2023/07/02 19:38:39;;;;;;;13.48;9.23;;;;;;;22.46;38.57;99633.69;10398070;28;20116;-62
2023/07/02 19:43:40;;;;;;;12.40;9.00;;;;;;;22.42;38.85;99627.88;10400019;28;20049;-62
2023/07/02 19:48:41;;;;;;;16.48;10.10;;;;;;;22.47;38.46;99649.75;10398949;28;20569;-62
2023/07/02 19:53:44;;;;;;;13.00;9.48;;;;;;;22.45;38.36;99651.03;10393651;28;20045;-62
2023/07/02 19:58:45;;;;;;;14.10;9.52;;;;;;;22.46;39.01;99663.53;10393525;28;20052;-63
2023/07/02 20:03:47;;;;;;;13.57;9.75;;;;;;;22.39;39.03;99658.16;10394386;28;20049;-65
2023/07/02 20:08:49;;;;;;;10.38;8.68;;;;;;;22.40;38.99;99667.94;10383320;28;20620;-63
2023/07/02 20:13:52;;;;;;;13.98;8.88;;;;;;;22.24;38.80;99664.63;10388331;28;20281;-63
2023/07/02 20:18:54;;;;;;;;;;;;;;;22.18;39.01;99672.78;10389282;28;20055;-64
2023/07/02 20:23:55;;;;;;;14.15;9.25;;;;;;;22.14;39.44;99666.94;10393700;28;20857;-65
2023/07/02 20:28:57;;;;;;;16.15;9.15;;;;;;;22.12;39.53;99670.94;10390658;28;20065;-64
2023/07/02 20:33:58;;;;;;;14.45;9.88;;;;;;;22.02;39.93;99668.66;10393680;28;20061;-63
2023/07/02 20:39:06;;;;;;;13.80;9.70;;;;;;;22.02;40.46;99671.38;10385044;28;20048;-63
2023/07/02 20:44:07;;;;;;;14.18;9.75;;;;;;;21.89;40.33;99673.06;10385266;28;20045;-63
2023/07/02 20:49:10;;;;;;;15.40;9.57;;;;;;;21.79;40.57;99669.97;10388020;28;20142;-63
2023/07/02 20:54:14;;;;;;;16.83;10.32;;;;;;;21.83;40.52;99679.34;10382620;28;20060;-62
2023/07/02 20:59:15;;;;;;;17.00;11.13;;;;;;;21.83;40.99;99687.47;10385933;28;20104;-68
2023/07/02 21:04:17;;;;;;;18.20;10.52;;;;;;;21.79;41.16;99698.94;10393053;28;20859;-63
2023/07/02 21:09:18;;;;;;;13.50;10.23;;;;;;;21.67;41.18;99690.63;10388599;28;20103;-64
2023/07/02 21:14:20;;;;;;;17.08;10.82;;;;;;;21.64;41.71;99697.28;10391420;28;20178;-62
2023/07/02 21:19:22;;;;;;;17.02;10.25;;;;;;;21.53;41.80;99693.34;10395100;28;20145;-63
2023/07/02 21:24:23;;;;;;;17.77;9.85;;;;;;;21.50;42.28;99692.94;10393536;28;20603;-64
2023/07/02 21:29:24;;;;;;;13.73;9.57;;;;;;;21.56;42.31;99702.06;10390101;28;20110;-63
2023/07/02 21:34:26;;;;;;;13.48;9.68;;;;;;;21.20;42.30;99658.13;10386457;28;20626;-63
2023/07/02 21:39:27;;;;;;;17.25;9.50;;;;;;;21.47;42.60;99710.38;10403148;28;20048;-63
2023/07/02 21:44:29;;;;;;;12.85;10.25;;;;;;;21.41;42.61;99716.63;10406821;28;20049;-65
2023/07/02 21:49:30;;;;;;;12.32;9.35;;;;;;;21.37;43.31;99712.66;10403165;28;20194;-63
2023/07/02 21:54:32;;;;;;;13.55;9.80;;;;;;;21.38;42.92;99725.16;10399521;28;20650;-62
2023/07/02 21:59:33;;;;;;;13.43;8.93;;;;;;;21.33;43.41;99717.69;10403928;28;20444;-62
2023/07/02 22:04:35;;;;;;;16.67;10.77;;;;;;;21.28;43.11;99722.03;10406193;28;20092;-63
2023/07/02 22:09:36;;;;;;;17.15;10.10;;;;;;;21.14;43.75;99711.19;10403845;28;20118;-62
2023/07/02 22:14:38;;;;;;;16.00;9.48;;;;;;;21.07;43.64;99718.47;10406028;28;20374;-62
2023/07/02 22:19:39;;;;;;;14.85;9.13;;;;;;;20.98;43.77;99717.00;10405113;28;24709;-62
2023/07/02 22:24:41;;;;;;;16.05;9.07;;;;;;;20.94;43.95;99711.16;10404637;28;20088;-62
2023/07/02 22:29:42;;;;;;;14.40;9.82;;;;;;;20.93;43.75;99719.50;10405769;28;20114;-62
2023/07/02 22:34:44;;;;;;;16.10;10.38;;;;;;;20.93;44.24;99714.91;10404797;28;20064;-62
2023/07/02 22:39:46;;;;;;;13.75;8.68;;;;;;;20.77;44.06;99697.16;10404374;28;20516;-62
2023/07/02 22:44:47;;;;;;;12.65;8.60;;;;;;;20.85;43.91;99715.06;10406167;28;20189;-60
2023/07/02 22:49:48;;;;;;;13.27;8.52;;;;;;;20.76;44.09;99719.00;10408005;28;20045;-65
2023/07/02 22:54:54;;;;;;;13.02;8.73;;;;;;;20.73;44.15;99714.00;10411755;28;20052;-62
2023/07/02 22:59:55;;;;;;;13.95;8.68;;;;;;;20.69;44.37;99713.59;10416773;28;20050;-62
2023/07/02 23:04:56;;;;;;;11.73;8.48;;;;;;;20.59;44.43;99704.97;10415078;28;20065;-63
2023/07/02 23:09:58;;;;;;;12.90;7.72;;;;;;;20.63;44.47;99717.91;10409152;28;20205;-62
2023/07/02 23:15:02;;;;;;;13.07;8.07;;;;;;;20.61;44.47;99713.72;10413900;28;20198;-63